sensor_id;sensor_type;location;lat;lon;timestamp;P1;durP1;ratioP1;P2;durP2;ratioP2
74867;SDS011;63419;42.262;12.210;2023-08-01T00:00:29;6.40;;;1.55;;
74867;SDS011;63419;42.262;12.210;2023-08-01T00:02:56;4.47;;;1.35;;
74867;SDS011;63419;42.262;12.210;2023-08-01T00:05:22;5.53;;;1.10;;
74867;SDS011;63419;42.262;12.210;2023-08-01T00:07:48;7.35;;;1.70;;
74867;SDS011;63419;42.262;12.210;2023-08-01T00:10:15;4.65;;;1.27;;
74867;SDS011;63419;42.262;12.210;2023-08-01T00:12:41;4.47;;;1.30;;
74867;SDS011;63419;42.262;12.210;2023-08-01T00:15:08;6.50;;;1.63;;
74867;SDS011;63419;42.262;12.210;2023-08-01T00:17:34;5.63;;;1.85;;
74867;SDS011;63419;42.262;12.210;2023-08-01T00:20:01;4.53;;;1.25;;
74867;SDS011;63419;42.262;12.210;2023-08-01T00:22:28;5.65;;;1.58;;
74867;SDS011;63419;42.262;12.210;2023-08-01T00:24:55;4.82;;;1.30;;
74867;SDS011;63419;42.262;12.210;2023-08-01T00:27:21;5.00;;;1.50;;
74867;SDS011;63419;42.262;12.210;2023-08-01T00:29:47;4.55;;;1.42;;
74867;SDS011;63419;42.262;12.210;2023-08-01T00:32:13;6.75;;;1.77;;
74867;SDS011;63419;42.262;12.210;2023-08-01T00:34:39;6.70;;;1.40;;
74867;SDS011;63419;42.262;12.210;2023-08-01T00:37:05;4.43;;;1.25;;
74867;SDS011;63419;42.262;12.210;2023-08-01T00:39:32;5.20;;;1.50;;
74867;SDS011;63419;42.262;12.210;2023-08-01T00:41:59;4.45;;;1.33;;
74867;SDS011;63419;42.262;12.210;2023-08-01T00:44:25;4.97;;;1.45;;
74867;SDS011;63419;42.262;12.210;2023-08-01T00:46:50;6.32;;;1.40;;
74867;SDS011;63419;42.262;12.210;2023-08-01T00:49:17;7.13;;;1.70;;
74867;SDS011;63419;42.262;12.210;2023-08-01T00:51:44;6.85;;;1.65;;
74867;SDS011;63419;42.262;12.210;2023-08-01T00:54:11;4.47;;;1.33;;
74867;SDS011;63419;42.262;12.210;2023-08-01T00:56:37;5.22;;;1.38;;
74867;SDS011;63419;42.262;12.210;2023-08-01T00:59:04;4.97;;;1.40;;
74867;SDS011;63419;42.262;12.210;2023-08-01T01:01:30;6.40;;;1.80;;
74867;SDS011;63419;42.262;12.210;2023-08-01T01:03:57;8.52;;;1.48;;
74867;SDS011;63419;42.262;12.210;2023-08-01T01:06:28;7.38;;;1.50;;
74867;SDS011;63419;42.262;12.210;2023-08-01T01:09:18;3.95;;;1.15;;
74867;SDS011;63419;42.262;12.210;2023-08-01T01:11:45;4.93;;;1.50;;
74867;SDS011;63419;42.262;12.210;2023-08-01T01:14:12;4.72;;;1.35;;
74867;SDS011;63419;42.262;12.210;2023-08-01T01:16:39;5.38;;;1.65;;
74867;SDS011;63419;42.262;12.210;2023-08-01T01:19:06;5.13;;;1.30;;
74867;SDS011;63419;42.262;12.210;2023-08-01T01:21:35;4.15;;;1.33;;
74867;SDS011;63419;42.262;12.210;2023-08-01T01:24:05;4.53;;;1.40;;
74867;SDS011;63419;42.262;12.210;2023-08-01T01:26:34;4.72;;;1.25;;
74867;SDS011;63419;42.262;12.210;2023-08-01T01:29:02;6.72;;;1.85;;
74867;SDS011;63419;42.262;12.210;2023-08-01T01:31:32;6.65;;;1.55;;
74867;SDS011;63419;42.262;12.210;2023-08-01T01:33:59;8.30;;;1.55;;
74867;SDS011;63419;42.262;12.210;2023-08-01T01:36:26;7.28;;;1.67;;
74867;SDS011;63419;42.262;12.210;2023-08-01T01:38:52;4.35;;;1.17;;
74867;SDS011;63419;42.262;12.210;2023-08-01T01:41:18;5.88;;;1.42;;
74867;SDS011;63419;42.262;12.210;2023-08-01T01:43:45;5.00;;;1.55;;
74867;SDS011;63419;42.262;12.210;2023-08-01T01:46:10;5.03;;;1.42;;
74867;SDS011;63419;42.262;12.210;2023-08-01T01:48:37;5.70;;;1.33;;
74867;SDS011;63419;42.262;12.210;2023-08-01T01:51:03;6.32;;;1.63;;
74867;SDS011;63419;42.262;12.210;2023-08-01T01:53:29;6.60;;;1.45;;
74867;SDS011;63419;42.262;12.210;2023-08-01T01:55:55;6.78;;;1.75;;
74867;SDS011;63419;42.262;12.210;2023-08-01T01:58:21;4.97;;;1.70;;
74867;SDS011;63419;42.262;12.210;2023-08-01T02:00:48;7.90;;;1.55;;
74867;SDS011;63419;42.262;12.210;2023-08-01T02:03:14;6.03;;;1.60;;
74867;SDS011;63419;42.262;12.210;2023-08-01T02:05:40;5.03;;;1.50;;
74867;SDS011;63419;42.262;12.210;2023-08-01T02:08:06;4.93;;;1.77;;
74867;SDS011;63419;42.262;12.210;2023-08-01T02:10:33;7.10;;;1.77;;
74867;SDS011;63419;42.262;12.210;2023-08-01T02:12:59;5.85;;;1.60;;
74867;SDS011;63419;42.262;12.210;2023-08-01T02:15:25;6.25;;;1.48;;
74867;SDS011;63419;42.262;12.210;2023-08-01T02:17:51;6.95;;;1.73;;
74867;SDS011;63419;42.262;12.210;2023-08-01T02:20:18;5.28;;;1.67;;
74867;SDS011;63419;42.262;12.210;2023-08-01T02:22:44;5.47;;;1.70;;
74867;SDS011;63419;42.262;12.210;2023-08-01T02:25:10;8.27;;;1.65;;
74867;SDS011;63419;42.262;12.210;2023-08-01T02:27:36;5.18;;;1.58;;
74867;SDS011;63419;42.262;12.210;2023-08-01T02:30:02;7.68;;;2.08;;
74867;SDS011;63419;42.262;12.210;2023-08-01T02:32:30;6.63;;;1.65;;
74867;SDS011;63419;42.262;12.210;2023-08-01T02:34:57;6.38;;;1.77;;
74867;SDS011;63419;42.262;12.210;2023-08-01T02:37:23;6.25;;;1.42;;
74867;SDS011;63419;42.262;12.210;2023-08-01T02:39:49;5.70;;;1.75;;
74867;SDS011;63419;42.262;12.210;2023-08-01T02:42:15;5.85;;;1.70;;
74867;SDS011;63419;42.262;12.210;2023-08-01T02:44:41;7.10;;;1.48;;
74867;SDS011;63419;42.262;12.210;2023-08-01T02:47:07;5.57;;;1.67;;
74867;SDS011;63419;42.262;12.210;2023-08-01T02:49:33;6.13;;;2.10;;
74867;SDS011;63419;42.262;12.210;2023-08-01T02:51:59;6.25;;;1.50;;
74867;SDS011;63419;42.262;12.210;2023-08-01T02:54:25;6.28;;;1.73;;
74867;SDS011;63419;42.262;12.210;2023-08-01T02:56:52;6.72;;;1.65;;
74867;SDS011;63419;42.262;12.210;2023-08-01T02:59:18;6.45;;;1.42;;
74867;SDS011;63419;42.262;12.210;2023-08-01T03:01:44;5.97;;;1.70;;
74867;SDS011;63419;42.262;12.210;2023-08-01T03:04:10;5.45;;;1.67;;
74867;SDS011;63419;42.262;12.210;2023-08-01T03:06:37;8.25;;;1.90;;
74867;SDS011;63419;42.262;12.210;2023-08-01T03:09:03;7.50;;;1.80;;
74867;SDS011;63419;42.262;12.210;2023-08-01T03:11:33;5.45;;;1.83;;
74867;SDS011;63419;42.262;12.210;2023-08-01T03:14:00;5.13;;;1.67;;
74867;SDS011;63419;42.262;12.210;2023-08-01T03:16:27;7.78;;;2.10;;
74867;SDS011;63419;42.262;12.210;2023-08-01T03:18:53;6.18;;;1.85;;
74867;SDS011;63419;42.262;12.210;2023-08-01T03:21:19;4.53;;;1.60;;
74867;SDS011;63419;42.262;12.210;2023-08-01T03:23:45;5.45;;;1.65;;
74867;SDS011;63419;42.262;12.210;2023-08-01T03:26:11;9.23;;;1.77;;
74867;SDS011;63419;42.262;12.210;2023-08-01T03:28:37;7.15;;;2.03;;
74867;SDS011;63419;42.262;12.210;2023-08-01T03:31:04;6.18;;;1.50;;
74867;SDS011;63419;42.262;12.210;2023-08-01T03:33:30;5.05;;;1.83;;
74867;SDS011;63419;42.262;12.210;2023-08-01T03:35:57;5.15;;;1.75;;
74867;SDS011;63419;42.262;12.210;2023-08-01T03:38:23;7.63;;;1.80;;
74867;SDS011;63419;42.262;12.210;2023-08-01T03:40:50;8.75;;;1.90;;
74867;SDS011;63419;42.262;12.210;2023-08-01T03:43:16;6.78;;;1.80;;
74867;SDS011;63419;42.262;12.210;2023-08-01T03:45:42;6.45;;;2.10;;
74867;SDS011;63419;42.262;12.210;2023-08-01T03:48:08;6.50;;;2.08;;
74867;SDS011;63419;42.262;12.210;2023-08-01T03:50:34;8.90;;;2.13;;
74867;SDS011;63419;42.262;12.210;2023-08-01T03:53:01;8.07;;;1.95;;
74867;SDS011;63419;42.262;12.210;2023-08-01T03:55:46;7.57;;;2.20;;
74867;SDS011;63419;42.262;12.210;2023-08-01T03:58:13;9.25;;;2.28;;
74867;SDS011;63419;42.262;12.210;2023-08-01T04:00:40;8.93;;;2.47;;
74867;SDS011;63419;42.262;12.210;2023-08-01T04:03:06;6.60;;;2.08;;
74867;SDS011;63419;42.262;12.210;2023-08-01T04:05:32;6.38;;;1.95;;
74867;SDS011;63419;42.262;12.210;2023-08-01T04:07:58;7.43;;;2.10;;
74867;SDS011;63419;42.262;12.210;2023-08-01T04:10:25;7.13;;;2.60;;
74867;SDS011;63419;42.262;12.210;2023-08-01T04:12:51;9.38;;;2.20;;
74867;SDS011;63419;42.262;12.210;2023-08-01T04:15:17;7.35;;;2.42;;
74867;SDS011;63419;42.262;12.210;2023-08-01T04:17:43;8.88;;;2.03;;
74867;SDS011;63419;42.262;12.210;2023-08-01T04:20:10;8.30;;;2.13;;
74867;SDS011;63419;42.262;12.210;2023-08-01T04:22:36;9.07;;;2.20;;
74867;SDS011;63419;42.262;12.210;2023-08-01T04:25:02;7.15;;;2.30;;
74867;SDS011;63419;42.262;12.210;2023-08-01T04:27:28;10.80;;;2.67;;
74867;SDS011;63419;42.262;12.210;2023-08-01T04:29:55;7.95;;;2.38;;
74867;SDS011;63419;42.262;12.210;2023-08-01T04:32:22;6.50;;;2.10;;
74867;SDS011;63419;42.262;12.210;2023-08-01T04:34:48;8.00;;;2.10;;
74867;SDS011;63419;42.262;12.210;2023-08-01T04:37:14;5.07;;;1.75;;
74867;SDS011;63419;42.262;12.210;2023-08-01T04:39:41;6.13;;;2.17;;
74867;SDS011;63419;42.262;12.210;2023-08-01T04:42:07;8.18;;;2.28;;
74867;SDS011;63419;42.262;12.210;2023-08-01T04:44:33;6.75;;;1.75;;
74867;SDS011;63419;42.262;12.210;2023-08-01T04:46:59;9.45;;;2.47;;
74867;SDS011;63419;42.262;12.210;2023-08-01T04:49:25;8.30;;;2.78;;
74867;SDS011;63419;42.262;12.210;2023-08-01T04:51:52;7.40;;;2.13;;
74867;SDS011;63419;42.262;12.210;2023-08-01T04:54:19;10.20;;;2.38;;
74867;SDS011;63419;42.262;12.210;2023-08-01T04:56:45;13.15;;;2.88;;
74867;SDS011;63419;42.262;12.210;2023-08-01T04:59:11;8.75;;;2.22;;
74867;SDS011;63419;42.262;12.210;2023-08-01T05:01:37;11.90;;;2.92;;
74867;SDS011;63419;42.262;12.210;2023-08-01T05:04:04;9.45;;;2.72;;
74867;SDS011;63419;42.262;12.210;2023-08-01T05:06:30;9.95;;;3.40;;
74867;SDS011;63419;42.262;12.210;2023-08-01T05:08:56;8.73;;;3.00;;
74867;SDS011;63419;42.262;12.210;2023-08-01T05:11:22;14.73;;;3.65;;
74867;SDS011;63419;42.262;12.210;2023-08-01T05:13:49;14.43;;;3.47;;
74867;SDS011;63419;42.262;12.210;2023-08-01T05:16:15;7.22;;;2.70;;
74867;SDS011;63419;42.262;12.210;2023-08-01T05:18:41;10.60;;;3.35;;
74867;SDS011;63419;42.262;12.210;2023-08-01T05:21:07;11.45;;;3.13;;
74867;SDS011;63419;42.262;12.210;2023-08-01T05:23:34;17.52;;;3.30;;
74867;SDS011;63419;42.262;12.210;2023-08-01T05:26:00;13.30;;;3.30;;
74867;SDS011;63419;42.262;12.210;2023-08-01T05:28:26;7.07;;;2.47;;
74867;SDS011;63419;42.262;12.210;2023-08-01T05:30:59;8.20;;;3.08;;
74867;SDS011;63419;42.262;12.210;2023-08-01T05:33:25;11.40;;;3.20;;
74867;SDS011;63419;42.262;12.210;2023-08-01T05:35:52;12.02;;;2.92;;
74867;SDS011;63419;42.262;12.210;2023-08-01T05:38:18;13.60;;;3.50;;
74867;SDS011;63419;42.262;12.210;2023-08-01T05:40:44;9.32;;;3.08;;
74867;SDS011;63419;42.262;12.210;2023-08-01T05:43:11;14.38;;;3.05;;
74867;SDS011;63419;42.262;12.210;2023-08-01T05:45:37;15.32;;;3.28;;
74867;SDS011;63419;42.262;12.210;2023-08-01T05:48:03;16.85;;;3.38;;
74867;SDS011;63419;42.262;12.210;2023-08-01T05:50:30;13.75;;;3.25;;
74867;SDS011;63419;42.262;12.210;2023-08-01T05:52:57;11.95;;;3.13;;
74867;SDS011;63419;42.262;12.210;2023-08-01T05:55:23;12.20;;;3.42;;
74867;SDS011;63419;42.262;12.210;2023-08-01T05:57:49;8.60;;;3.53;;
74867;SDS011;63419;42.262;12.210;2023-08-01T06:00:18;14.60;;;3.17;;
74867;SDS011;63419;42.262;12.210;2023-08-01T06:02:47;14.23;;;3.50;;
74867;SDS011;63419;42.262;12.210;2023-08-01T06:05:14;16.15;;;4.00;;
74867;SDS011;63419;42.262;12.210;2023-08-01T06:07:41;13.15;;;3.25;;
74867;SDS011;63419;42.262;12.210;2023-08-01T06:10:08;13.18;;;3.15;;
74867;SDS011;63419;42.262;12.210;2023-08-01T06:12:34;9.75;;;3.00;;
74867;SDS011;63419;42.262;12.210;2023-08-01T06:15:01;11.73;;;2.75;;
74867;SDS011;63419;42.262;12.210;2023-08-01T06:17:28;10.05;;;2.55;;
74867;SDS011;63419;42.262;12.210;2023-08-01T06:19:54;11.30;;;2.72;;
74867;SDS011;63419;42.262;12.210;2023-08-01T06:22:20;9.77;;;2.60;;
74867;SDS011;63419;42.262;12.210;2023-08-01T06:24:46;9.23;;;2.95;;
74867;SDS011;63419;42.262;12.210;2023-08-01T06:27:13;13.00;;;3.45;;
74867;SDS011;63419;42.262;12.210;2023-08-01T06:29:40;9.57;;;2.95;;
74867;SDS011;63419;42.262;12.210;2023-08-01T06:32:06;7.97;;;2.88;;
74867;SDS011;63419;42.262;12.210;2023-08-01T06:34:33;12.13;;;3.20;;
74867;SDS011;63419;42.262;12.210;2023-08-01T06:36:59;14.93;;;3.38;;
74867;SDS011;63419;42.262;12.210;2023-08-01T06:39:25;6.80;;;2.25;;
74867;SDS011;63419;42.262;12.210;2023-08-01T06:41:52;9.63;;;2.38;;
74867;SDS011;63419;42.262;12.210;2023-08-01T06:44:18;13.20;;;2.95;;
74867;SDS011;63419;42.262;12.210;2023-08-01T06:46:44;14.10;;;2.85;;
74867;SDS011;63419;42.262;12.210;2023-08-01T06:49:10;8.02;;;2.45;;
74867;SDS011;63419;42.262;12.210;2023-08-01T06:51:36;11.80;;;2.90;;
74867;SDS011;63419;42.262;12.210;2023-08-01T06:54:02;8.77;;;2.40;;
74867;SDS011;63419;42.262;12.210;2023-08-01T06:56:28;12.40;;;2.97;;
74867;SDS011;63419;42.262;12.210;2023-08-01T06:58:55;14.65;;;2.40;;
74867;SDS011;63419;42.262;12.210;2023-08-01T07:01:21;8.68;;;1.90;;
74867;SDS011;63419;42.262;12.210;2023-08-01T07:03:47;7.90;;;3.20;;
74867;SDS011;63419;42.262;12.210;2023-08-01T07:06:16;7.00;;;2.38;;
74867;SDS011;63419;42.262;12.210;2023-08-01T07:09:01;12.73;;;2.47;;
74867;SDS011;63419;42.262;12.210;2023-08-01T07:11:27;3.90;;;1.27;;
74867;SDS011;63419;42.262;12.210;2023-08-01T07:13:53;10.95;;;2.60;;
74867;SDS011;63419;42.262;12.210;2023-08-01T07:16:19;11.35;;;2.45;;
74867;SDS011;63419;42.262;12.210;2023-08-01T07:18:45;8.00;;;2.45;;
74867;SDS011;63419;42.262;12.210;2023-08-01T07:21:13;12.02;;;2.35;;
74867;SDS011;63419;42.262;12.210;2023-08-01T07:23:39;8.98;;;2.28;;
74867;SDS011;63419;42.262;12.210;2023-08-01T07:26:06;8.30;;;2.00;;
74867;SDS011;63419;42.262;12.210;2023-08-01T07:28:32;13.02;;;2.30;;
74867;SDS011;63419;42.262;12.210;2023-08-01T07:31:02;8.68;;;2.13;;
74867;SDS011;63419;42.262;12.210;2023-08-01T07:33:32;12.43;;;2.42;;
74867;SDS011;63419;42.262;12.210;2023-08-01T07:35:59;9.25;;;1.67;;
74867;SDS011;63419;42.262;12.210;2023-08-01T07:38:26;17.73;;;2.63;;
74867;SDS011;63419;42.262;12.210;2023-08-01T07:40:52;10.98;;;2.20;;
74867;SDS011;63419;42.262;12.210;2023-08-01T07:43:19;12.57;;;2.15;;
74867;SDS011;63419;42.262;12.210;2023-08-01T07:45:46;8.10;;;1.98;;
74867;SDS011;63419;42.262;12.210;2023-08-01T07:48:15;7.35;;;2.20;;
74867;SDS011;63419;42.262;12.210;2023-08-01T07:53:08;8.48;;;2.83;;
74867;SDS011;63419;42.262;12.210;2023-08-01T07:55:34;11.60;;;2.28;;
74867;SDS011;63419;42.262;12.210;2023-08-01T07:58:00;13.68;;;2.03;;
74867;SDS011;63419;42.262;12.210;2023-08-01T08:00:26;5.30;;;1.80;;
74867;SDS011;63419;42.262;12.210;2023-08-01T08:02:52;8.90;;;2.20;;
74867;SDS011;63419;42.262;12.210;2023-08-01T08:05:19;8.98;;;1.63;;
74867;SDS011;63419;42.262;12.210;2023-08-01T08:07:45;7.05;;;1.55;;
74867;SDS011;63419;42.262;12.210;2023-08-01T08:10:11;6.00;;;1.13;;
74867;SDS011;63419;42.262;12.210;2023-08-01T08:12:38;12.10;;;1.88;;
74867;SDS011;63419;42.262;12.210;2023-08-01T08:15:04;13.90;;;2.65;;
74867;SDS011;63419;42.262;12.210;2023-08-01T08:17:31;4.78;;;1.30;;
74867;SDS011;63419;42.262;12.210;2023-08-01T08:19:57;12.23;;;3.17;;
74867;SDS011;63419;42.262;12.210;2023-08-01T08:22:23;10.52;;;2.03;;
74867;SDS011;63419;42.262;12.210;2023-08-01T08:24:49;8.48;;;1.95;;
74867;SDS011;63419;42.262;12.210;2023-08-01T08:27:15;14.38;;;2.22;;
74867;SDS011;63419;42.262;12.210;2023-08-01T08:29:42;4.68;;;1.48;;
74867;SDS011;63419;42.262;12.210;2023-08-01T08:32:08;8.02;;;1.73;;
74867;SDS011;63419;42.262;12.210;2023-08-01T08:34:34;6.85;;;1.90;;
74867;SDS011;63419;42.262;12.210;2023-08-01T08:37:01;5.43;;;1.00;;
74867;SDS011;63419;42.262;12.210;2023-08-01T08:41:53;11.70;;;1.60;;
74867;SDS011;63419;42.262;12.210;2023-08-01T08:44:19;7.93;;;1.40;;
74867;SDS011;63419;42.262;12.210;2023-08-01T08:46:49;7.45;;;1.85;;
74867;SDS011;63419;42.262;12.210;2023-08-01T08:49:19;6.68;;;1.48;;
74867;SDS011;63419;42.262;12.210;2023-08-01T08:51:47;9.07;;;1.77;;
74867;SDS011;63419;42.262;12.210;2023-08-01T08:54:15;8.18;;;1.23;;
74867;SDS011;63419;42.262;12.210;2023-08-01T08:56:42;5.22;;;1.00;;
74867;SDS011;63419;42.262;12.210;2023-08-01T08:59:09;3.50;;;0.88;;
74867;SDS011;63419;42.262;12.210;2023-08-01T09:04:03;5.60;;;1.27;;
74867;SDS011;63419;42.262;12.210;2023-08-01T09:06:30;9.90;;;1.65;;
74867;SDS011;63419;42.262;12.210;2023-08-01T09:09:04;5.07;;;1.23;;
74867;SDS011;63419;42.262;12.210;2023-08-01T09:11:46;5.47;;;1.40;;
74867;SDS011;63419;42.262;12.210;2023-08-01T09:14:17;4.60;;;0.80;;
74867;SDS011;63419;42.262;12.210;2023-08-01T09:16:45;8.25;;;2.10;;
74867;SDS011;63419;42.262;12.210;2023-08-01T09:19:16;9.15;;;1.92;;
74867;SDS011;63419;42.262;12.210;2023-08-01T09:21:45;7.63;;;1.73;;
74867;SDS011;63419;42.262;12.210;2023-08-01T09:24:14;8.65;;;1.48;;
74867;SDS011;63419;42.262;12.210;2023-08-01T09:26:46;6.80;;;1.90;;
74867;SDS011;63419;42.262;12.210;2023-08-01T09:29:17;5.57;;;0.95;;
74867;SDS011;63419;42.262;12.210;2023-08-01T09:31:46;5.63;;;1.25;;
74867;SDS011;63419;42.262;12.210;2023-08-01T09:34:18;8.93;;;1.30;;
74867;SDS011;63419;42.262;12.210;2023-08-01T09:36:48;4.53;;;1.27;;
74867;SDS011;63419;42.262;12.210;2023-08-01T09:39:16;9.10;;;1.67;;
74867;SDS011;63419;42.262;12.210;2023-08-01T09:41:45;6.60;;;1.25;;
74867;SDS011;63419;42.262;12.210;2023-08-01T09:44:19;3.72;;;0.95;;
74867;SDS011;63419;42.262;12.210;2023-08-01T09:49:32;5.95;;;1.67;;
74867;SDS011;63419;42.262;12.210;2023-08-01T09:51:59;5.03;;;1.40;;
74867;SDS011;63419;42.262;12.210;2023-08-01T09:54:26;8.02;;;2.05;;
74867;SDS011;63419;42.262;12.210;2023-08-01T09:56:56;13.00;;;1.67;;
74867;SDS011;63419;42.262;12.210;2023-08-01T09:59:25;5.70;;;1.88;;
74867;SDS011;63419;42.262;12.210;2023-08-01T10:01:52;6.10;;;1.38;;
74867;SDS011;63419;42.262;12.210;2023-08-01T10:04:23;8.32;;;1.98;;
74867;SDS011;63419;42.262;12.210;2023-08-01T10:06:57;5.07;;;1.40;;
74867;SDS011;63419;42.262;12.210;2023-08-01T10:09:32;8.68;;;2.70;;
74867;SDS011;63419;42.262;12.210;2023-08-01T10:12:01;9.57;;;1.45;;
74867;SDS011;63419;42.262;12.210;2023-08-01T10:14:31;10.30;;;2.10;;
74867;SDS011;63419;42.262;12.210;2023-08-01T10:16:58;7.32;;;1.88;;
74867;SDS011;63419;42.262;12.210;2023-08-01T10:19:27;5.18;;;1.33;;
74867;SDS011;63419;42.262;12.210;2023-08-01T10:21:58;9.77;;;1.52;;
74867;SDS011;63419;42.262;12.210;2023-08-01T10:24:26;3.13;;;0.85;;
74867;SDS011;63419;42.262;12.210;2023-08-01T10:26:55;8.40;;;1.73;;
74867;SDS011;63419;42.262;12.210;2023-08-01T10:32:00;3.85;;;1.30;;
74867;SDS011;63419;42.262;12.210;2023-08-01T10:34:26;4.05;;;1.20;;
74867;SDS011;63419;42.262;12.210;2023-08-01T10:39:22;7.00;;;1.42;;
74867;SDS011;63419;42.262;12.210;2023-08-01T10:44:44;6.68;;;1.55;;
74867;SDS011;63419;42.262;12.210;2023-08-01T10:47:11;5.32;;;1.60;;
74867;SDS011;63419;42.262;12.210;2023-08-01T10:49:40;6.32;;;1.55;;
74867;SDS011;63419;42.262;12.210;2023-08-01T10:57:27;6.38;;;1.65;;
74867;SDS011;63419;42.262;12.210;2023-08-01T10:59:55;8.63;;;1.80;;
74867;SDS011;63419;42.262;12.210;2023-08-01T11:02:25;9.35;;;1.70;;
74867;SDS011;63419;42.262;12.210;2023-08-01T11:04:54;7.70;;;1.40;;
74867;SDS011;63419;42.262;12.210;2023-08-01T11:07:24;6.45;;;1.85;;
74867;SDS011;63419;42.262;12.210;2023-08-01T11:12:39;4.18;;;1.48;;
74867;SDS011;63419;42.262;12.210;2023-08-01T11:15:09;4.60;;;1.30;;
74867;SDS011;63419;42.262;12.210;2023-08-01T11:17:39;4.85;;;1.60;;
74867;SDS011;63419;42.262;12.210;2023-08-01T11:20:09;8.05;;;1.73;;
74867;SDS011;63419;42.262;12.210;2023-08-01T11:22:48;9.57;;;1.45;;
74867;SDS011;63419;42.262;12.210;2023-08-01T11:25:19;6.03;;;1.23;;
74867;SDS011;63419;42.262;12.210;2023-08-01T11:28:06;6.93;;;2.03;;
74867;SDS011;63419;42.262;12.210;2023-08-01T11:30:36;6.50;;;1.52;;
74867;SDS011;63419;42.262;12.210;2023-08-01T11:38:22;7.07;;;1.63;;
74867;SDS011;63419;42.262;12.210;2023-08-01T11:40:54;6.95;;;1.83;;
74867;SDS011;63419;42.262;12.210;2023-08-01T11:43:24;5.50;;;1.70;;
74867;SDS011;63419;42.262;12.210;2023-08-01T11:48:37;6.82;;;1.60;;
74867;SDS011;63419;42.262;12.210;2023-08-01T11:51:04;8.35;;;1.58;;
74867;SDS011;63419;42.262;12.210;2023-08-01T11:53:30;4.90;;;1.35;;
74867;SDS011;63419;42.262;12.210;2023-08-01T11:58:30;8.80;;;2.20;;
74867;SDS011;63419;42.262;12.210;2023-08-01T12:01:01;6.85;;;1.73;;
74867;SDS011;63419;42.262;12.210;2023-08-01T12:03:43;7.78;;;1.60;;
74867;SDS011;63419;42.262;12.210;2023-08-01T12:06:16;5.55;;;1.40;;
74867;SDS011;63419;42.262;12.210;2023-08-01T12:08:47;4.95;;;1.20;;
74867;SDS011;63419;42.262;12.210;2023-08-01T12:11:20;7.70;;;1.35;;
74867;SDS011;63419;42.262;12.210;2023-08-01T12:14:13;5.00;;;1.33;;
74867;SDS011;63419;42.262;12.210;2023-08-01T12:16:42;6.82;;;1.55;;
74867;SDS011;63419;42.262;12.210;2023-08-01T12:19:16;6.35;;;2.00;;
74867;SDS011;63419;42.262;12.210;2023-08-01T12:21:45;4.47;;;1.35;;
74867;SDS011;63419;42.262;12.210;2023-08-01T12:24:16;8.27;;;1.33;;
74867;SDS011;63419;42.262;12.210;2023-08-01T12:26:43;4.10;;;1.15;;
74867;SDS011;63419;42.262;12.210;2023-08-01T12:31:37;6.18;;;1.40;;
74867;SDS011;63419;42.262;12.210;2023-08-01T12:34:03;5.95;;;1.30;;
74867;SDS011;63419;42.262;12.210;2023-08-01T12:38:57;5.88;;;1.67;;
74867;SDS011;63419;42.262;12.210;2023-08-01T12:41:23;5.57;;;1.50;;
74867;SDS011;63419;42.262;12.210;2023-08-01T12:43:52;6.82;;;2.22;;
74867;SDS011;63419;42.262;12.210;2023-08-01T12:46:22;8.18;;;1.88;;
74867;SDS011;63419;42.262;12.210;2023-08-01T12:48:48;11.27;;;1.90;;
74867;SDS011;63419;42.262;12.210;2023-08-01T12:51:15;5.55;;;1.67;;
74867;SDS011;63419;42.262;12.210;2023-08-01T12:53:42;7.57;;;1.90;;
74867;SDS011;63419;42.262;12.210;2023-08-01T12:56:11;7.90;;;1.92;;
74867;SDS011;63419;42.262;12.210;2023-08-01T12:58:37;5.35;;;1.90;;
74867;SDS011;63419;42.262;12.210;2023-08-01T13:03:31;9.88;;;2.38;;
74867;SDS011;63419;42.262;12.210;2023-08-01T13:08:24;8.88;;;2.00;;
74867;SDS011;63419;42.262;12.210;2023-08-01T13:10:50;7.68;;;2.20;;
74867;SDS011;63419;42.262;12.210;2023-08-01T13:13:18;8.40;;;1.63;;
74867;SDS011;63419;42.262;12.210;2023-08-01T13:15:47;6.80;;;1.73;;
74867;SDS011;63419;42.262;12.210;2023-08-01T13:21:36;7.32;;;1.70;;
74867;SDS011;63419;42.262;12.210;2023-08-01T13:24:02;3.92;;;0.88;;
74867;SDS011;63419;42.262;12.210;2023-08-01T13:26:47;5.35;;;1.25;;
74867;SDS011;63419;42.262;12.210;2023-08-01T13:29:16;6.85;;;2.05;;
74867;SDS011;63419;42.262;12.210;2023-08-01T13:31:44;5.85;;;1.70;;
74867;SDS011;63419;42.262;12.210;2023-08-01T13:34:10;6.40;;;1.65;;
74867;SDS011;63419;42.262;12.210;2023-08-01T13:39:03;6.57;;;1.52;;
74867;SDS011;63419;42.262;12.210;2023-08-01T13:41:29;5.38;;;1.67;;
74867;SDS011;63419;42.262;12.210;2023-08-01T13:43:58;7.22;;;1.63;;
74867;SDS011;63419;42.262;12.210;2023-08-01T13:46:26;5.97;;;1.73;;
74867;SDS011;63419;42.262;12.210;2023-08-01T13:48:56;9.30;;;2.33;;
74867;SDS011;63419;42.262;12.210;2023-08-01T13:51:24;6.15;;;1.40;;
74867;SDS011;63419;42.262;12.210;2023-08-01T13:53:50;6.18;;;1.58;;
74867;SDS011;63419;42.262;12.210;2023-08-01T13:56:16;6.10;;;1.45;;
74867;SDS011;63419;42.262;12.210;2023-08-01T13:58:43;4.43;;;1.40;;
74867;SDS011;63419;42.262;12.210;2023-08-01T14:03:37;3.60;;;0.82;;
74867;SDS011;63419;42.262;12.210;2023-08-01T14:06:05;3.92;;;1.23;;
74867;SDS011;63419;42.262;12.210;2023-08-01T14:08:36;3.90;;;1.20;;
74867;SDS011;63419;42.262;12.210;2023-08-01T14:11:05;4.35;;;1.23;;
74867;SDS011;63419;42.262;12.210;2023-08-01T14:13:34;2.08;;;0.70;;
74867;SDS011;63419;42.262;12.210;2023-08-01T14:16:01;5.88;;;1.30;;
74867;SDS011;63419;42.262;12.210;2023-08-01T14:18:29;6.13;;;1.55;;
74867;SDS011;63419;42.262;12.210;2023-08-01T14:20:55;5.38;;;2.10;;
74867;SDS011;63419;42.262;12.210;2023-08-01T14:23:22;6.15;;;1.73;;
74867;SDS011;63419;42.262;12.210;2023-08-01T14:25:48;4.60;;;1.40;;
74867;SDS011;63419;42.262;12.210;2023-08-01T14:28:15;4.82;;;1.02;;
74867;SDS011;63419;42.262;12.210;2023-08-01T14:30:41;4.85;;;1.08;;
74867;SDS011;63419;42.262;12.210;2023-08-01T14:35:53;8.15;;;2.00;;
74867;SDS011;63419;42.262;12.210;2023-08-01T14:38:20;5.43;;;1.23;;
74867;SDS011;63419;42.262;12.210;2023-08-01T14:40:46;7.68;;;1.38;;
74867;SDS011;63419;42.262;12.210;2023-08-01T14:45:39;7.47;;;1.35;;
74867;SDS011;63419;42.262;12.210;2023-08-01T14:48:06;8.32;;;1.60;;
74867;SDS011;63419;42.262;12.210;2023-08-01T14:50:33;6.38;;;1.58;;
74867;SDS011;63419;42.262;12.210;2023-08-01T14:53:18;7.07;;;1.10;;
74867;SDS011;63419;42.262;12.210;2023-08-01T14:55:45;5.78;;;1.35;;
74867;SDS011;63419;42.262;12.210;2023-08-01T14:58:11;5.72;;;1.30;;
74867;SDS011;63419;42.262;12.210;2023-08-01T15:00:39;6.93;;;2.03;;
74867;SDS011;63419;42.262;12.210;2023-08-01T15:03:07;8.95;;;1.75;;
74867;SDS011;63419;42.262;12.210;2023-08-01T15:05:33;7.35;;;2.00;;
74867;SDS011;63419;42.262;12.210;2023-08-01T15:08:00;10.05;;;2.22;;
74867;SDS011;63419;42.262;12.210;2023-08-01T15:10:30;5.80;;;1.65;;
74867;SDS011;63419;42.262;12.210;2023-08-01T15:12:57;7.13;;;1.70;;
74867;SDS011;63419;42.262;12.210;2023-08-01T15:15:23;5.93;;;1.42;;
74867;SDS011;63419;42.262;12.210;2023-08-01T15:17:51;5.13;;;1.45;;
74867;SDS011;63419;42.262;12.210;2023-08-01T15:20:18;6.05;;;1.55;;
74867;SDS011;63419;42.262;12.210;2023-08-01T15:22:49;10.52;;;1.73;;
74867;SDS011;63419;42.262;12.210;2023-08-01T15:25:15;7.10;;;1.67;;
74867;SDS011;63419;42.262;12.210;2023-08-01T15:27:41;4.63;;;1.33;;
74867;SDS011;63419;42.262;12.210;2023-08-01T15:30:08;5.35;;;1.40;;
74867;SDS011;63419;42.262;12.210;2023-08-01T15:32:34;9.07;;;1.92;;
74867;SDS011;63419;42.262;12.210;2023-08-01T15:35:01;7.68;;;1.95;;